Time,TemperatureF,DewpointF,PressureIn,WindDirection,WindDirectionDegrees,WindSpeedMPH,WindSpeedGustMPH,Humidity,HourlyPrecipIn,Conditions,Clouds,dailyrainin,SoftwareType,DateUTC
2013-07-28 00:02:00,50.0,48.3,28.93,North,0,10.4,10.4,94,0.00,RA,,0.00,WeatherDisplay:10.37,2013-07-28 05:02:00,
2013-07-28 00:07:00,50.0,48.3,28.93,North,0,10.4,10.4,94,0.00,RA,,0.00,WeatherDisplay:10.37,2013-07-28 05:07:00,
2013-07-28 00:12:00,50.2,48.5,28.93,NW,315,10.4,10.4,94,0.00,CLR,,0.00,WeatherDisplay:10.37,2013-07-28 05:12:00,
2013-07-28 00:17:00,50.2,48.2,28.93,North,0,8.1,8.1,93,0.00,CLR,,0.00,WeatherDisplay:10.37,2013-07-28 05:17:00,
2013-07-28 00:22:00,50.2,48.2,28.93,North,0,6.9,6.9,93,0.00,CLR,,0.00,WeatherDisplay:10.37,2013-07-28 05:22:00,
2013-07-28 00:27:00,50.0,48.1,28.93,NW,315,5.8,5.8,93,0.00,CLR,,0.00,WeatherDisplay:10.37,2013-07-28 05:27:00,
2013-07-28 00:32:00,50.0,48.1,28.93,North,0,8.1,8.1,93,0.00,CLR,,0.00,WeatherDisplay:10.37,2013-07-28 05:32:00,
2013-07-28 00:37:00,50.0,48.1,28.93,North,0,10.4,10.4,93,0.00,CLR,,0.00,WeatherDisplay:10.37,2013-07-28 05:37:00,
2013-07-28 00:42:00,50.0,48.1,28.93,North,0,10.4,10.4,93,0.00,CLR,,0.00,WeatherDisplay:10.37,2013-07-28 05:42:00,
2013-07-28 00:47:00,49.8,47.9,28.94,NW,315,9.2,9.2,93,0.00,CLR,,0.00,WeatherDisplay:10.37,2013-07-28 05:47:00,
2013-07-28 00:52:00,50.0,48.1,28.94,North,0,6.9,6.9,93,0.00,CLR,,0.00,WeatherDisplay:10.37,2013-07-28 05:52:00,
2013-07-28 00:57:00,49.8,47.9,28.94,NE,45,9.2,9.2,93,0.00,CLR,,0.00,WeatherDisplay:10.37,2013-07-28 05:57:00,
2013-07-28 01:02:00,49.6,47.7,28.94,NW,315,5.8,5.8,93,0.00,CLR,,0.00,WeatherDisplay:10.37,2013-07-28 06:02:00,
2013-07-28 01:07:00,49.6,47.7,28.94,North,0,8.1,8.1,93,0.00,CLR,,0.00,WeatherDisplay:10.37,2013-07-28 06:07:00,
2013-07-28 01:12:00,49.6,47.7,28.94,North,0,4.6,4.6,93,0.00,CLR,,0.00,WeatherDisplay:10.37,2013-07-28 06:12:00,
2013-07-28 01:17:00,49.6,47.7,28.94,NE,45,2.3,2.3,93,0.00,CLR,,0.00,WeatherDisplay:10.37,2013-07-28 06:17:00,
2013-07-28 01:22:00,49.6,47.7,28.94,NE,45,2.3,2.3,93,0.00,CLR,,0.00,WeatherDisplay:10.37,2013-07-28 06:22:00,
2013-07-28 01:27:00,49.3,47.1,28.94,North,0,9.2,9.2,92,0.00,CLR,,0.00,WeatherDisplay:10.37,2013-07-28 06:27:00,
2013-07-28 01:32:00,49.3,47.1,28.94,North,0,6.9,6.9,92,0.00,CLR,,0.00,WeatherDisplay:10.37,2013-07-28 06:32:00,
2013-07-28 01:37:00,49.3,47.3,28.94,North,0,4.6,4.6,93,0.00,CLR,,0.00,WeatherDisplay:10.37,2013-07-28 06:37:00,
2013-07-28 01:42:00,49.5,47.5,28.94,NW,315,5.8,5.8,93,0.00,CLR,,0.00,WeatherDisplay:10.37,2013-07-28 06:42:00,
2013-07-28 01:47:00,49.5,47.5,28.94,NW,315,9.2,9.2,93,0.00,CLR,,0.00,WeatherDisplay:10.37,2013-07-28 06:47:00,
2013-07-28 01:52:00,49.5,47.5,28.94,NW,315,6.9,6.9,93,0.00,CLR,,0.00,WeatherDisplay:10.37,2013-07-28 06:52:00,
2013-07-28 01:57:00,49.5,47.2,28.94,NW,315,5.8,5.8,92,0.00,CLR,,0.00,WeatherDisplay:10.37,2013-07-28 06:57:00,
2013-07-28 02:02:00,49.5,47.5,28.94,North,0,8.1,8.1,93,0.00,CLR,,0.00,WeatherDisplay:10.37,2013-07-28 07:02:00,
2013-07-28 02:07:00,49.5,47.5,28.94,North,0,5.8,5.8,93,0.00,CLR,,0.00,WeatherDisplay:10.37,2013-07-28 07:07:00,
2013-07-28 02:12:00,49.6,47.7,28.94,North,0,8.1,8.1,93,0.00,CLR,,0.00,WeatherDisplay:10.37,2013-07-28 07:12:00,
2013-07-28 02:17:00,49.5,47.5,28.93,NW,315,4.6,4.6,93,0.00,CLR,,0.00,WeatherDisplay:10.37,2013-07-28 07:17:00,
2013-07-28 02:22:00,49.6,47.7,28.94,NW,315,4.6,4.6,93,0.00,CLR,,0.00,WeatherDisplay:10.37,2013-07-28 07:22:00,
2013-07-28 02:27:00,49.6,47.7,28.94,NW,315,8.1,8.1,93,0.00,CLR,,0.00,WeatherDisplay:10.37,2013-07-28 07:27:00,
2013-07-28 02:32:00,49.5,47.5,28.94,North,0,4.6,4.6,93,0.00,CLR,,0.00,WeatherDisplay:10.37,2013-07-28 07:32:00,
2013-07-28 02:37:00,49.3,47.3,28.94,NE,45,5.8,5.8,93,0.00,CLR,,0.00,WeatherDisplay:10.37,2013-07-28 07:37:00,
2013-07-28 02:42:00,49.3,47.6,28.94,NW,315,6.9,6.9,94,0.00,CLR,,0.00,WeatherDisplay:10.37,2013-07-28 07:42:00,
2013-07-28 02:47:00,49.1,47.4,28.94,North,0,5.8,5.8,94,0.00,CLR,,0.00,WeatherDisplay:10.37,2013-07-28 07:47:00,
2013-07-28 02:52:00,49.1,47.7,28.94,NW,315,3.5,3.5,95,0.00,CLR,,0.00,WeatherDisplay:10.37,2013-07-28 07:52:00,
2013-07-28 02:57:00,49.1,47.7,28.94,North,0,5.8,5.8,95,0.00,CLR,,0.00,WeatherDisplay:10.37,2013-07-28 07:57:00,
2013-07-28 03:02:00,48.9,47.6,28.94,NE,45,4.6,4.6,95,0.00,CLR,,0.00,WeatherDisplay:10.37,2013-07-28 08:02:00,
2013-07-28 03:07:00,48.9,47.8,28.94,NW,315,5.8,5.8,96,0.00,CLR,,0.00,WeatherDisplay:10.37,2013-07-28 08:07:00,
2013-07-28 03:12:00,48.7,47.7,28.93,WNW,292,4.6,4.6,96,0.00,CLR,,0.00,WeatherDisplay:10.37,2013-07-28 08:12:00,
2013-07-28 03:17:00,48.7,47.7,28.93,North,0,3.5,3.5,96,0.00,CLR,,0.00,WeatherDisplay:10.37,2013-07-28 08:17:00,
2013-07-28 03:22:00,48.7,47.7,28.93,North,0,3.5,3.5,96,0.00,CLR,,0.00,WeatherDisplay:10.37,2013-07-28 08:22:00,
2013-07-28 03:27:00,48.9,48.1,28.93,NW,315,6.9,6.9,97,0.00,CLR,,0.00,WeatherDisplay:10.37,2013-07-28 08:27:00,
2013-07-28 03:32:00,49.1,48.3,28.93,NW,315,4.6,4.6,97,0.00,CLR,,0.00,WeatherDisplay:10.37,2013-07-28 08:32:00,
2013-07-28 03:37:00,49.3,48.5,28.93,NW,315,6.9,6.9,97,0.00,CLR,,0.00,WeatherDisplay:10.37,2013-07-28 08:37:00,
2013-07-28 03:42:00,49.5,48.6,28.94,NW,315,6.9,6.9,97,0.00,CLR,,0.00,WeatherDisplay:10.37,2013-07-28 08:42:00,
2013-07-28 03:47:00,49.5,48.6,28.94,North,0,3.5,3.5,97,0.00,CLR,,0.00,WeatherDisplay:10.37,2013-07-28 08:47:00,
2013-07-28 03:52:00,49.3,48.5,28.94,North,0,5.8,5.8,97,0.00,CLR,,0.00,WeatherDisplay:10.37,2013-07-28 08:52:00,
2013-07-28 03:57:00,49.5,48.6,28.93,NW,315,5.8,5.8,97,0.00,CLR,,0.00,WeatherDisplay:10.37,2013-07-28 08:57:00,
2013-07-28 04:02:00,49.5,48.6,28.94,NW,315,5.8,5.8,97,0.00,CLR,,0.00,WeatherDisplay:10.37,2013-07-28 09:02:00,
2013-07-28 04:07:00,49.5,48.6,28.94,NW,315,5.8,5.8,97,0.00,CLR,,0.00,WeatherDisplay:10.37,2013-07-28 09:07:00,
2013-07-28 04:12:00,49.6,48.8,28.94,NW,315,3.5,3.5,97,0.00,CLR,,0.00,WeatherDisplay:10.37,2013-07-28 09:12:00,
2013-07-28 04:17:00,49.6,48.8,28.94,NNW,338,3.5,3.5,97,0.00,CLR,,0.00,WeatherDisplay:10.37,2013-07-28 09:17:00,
2013-07-28 04:22:00,49.8,49.0,28.94,North,0,3.5,3.5,97,0.00,CLR,,0.00,WeatherDisplay:10.37,2013-07-28 09:22:00,
2013-07-28 04:27:00,50.0,49.2,28.94,NE,45,5.8,5.8,97,0.00,CLR,,0.00,WeatherDisplay:10.37,2013-07-28 09:27:00,
2013-07-28 04:32:00,50.2,49.4,28.94,NE,45,3.5,3.5,97,0.00,CLR,,0.00,WeatherDisplay:10.37,2013-07-28 09:32:00,
2013-07-28 04:37:00,50.4,49.5,28.94,North,0,4.6,4.6,97,0.00,CLR,,0.00,WeatherDisplay:10.37,2013-07-28 09:37:00,
2013-07-28 04:42:00,50.4,49.5,28.94,West,270,3.5,3.5,97,0.00,CLR,,0.00,WeatherDisplay:10.37,2013-07-28 09:42:00,
2013-07-28 04:47:00,50.5,49.7,28.94,North,0,8.1,8.1,97,0.00,CLR,,0.00,WeatherDisplay:10.37,2013-07-28 09:47:00,
2013-07-28 04:52:00,50.7,49.6,28.94,North,0,6.9,6.9,96,0.00,CLR,,0.00,WeatherDisplay:10.37,2013-07-28 09:52:00,
2013-07-28 04:57:00,50.9,49.8,28.94,NW,315,9.2,9.2,96,0.00,CLR,,0.00,WeatherDisplay:10.37,2013-07-28 09:57:00,
2013-07-28 05:02:00,51.1,50.0,28.94,North,0,10.4,10.4,96,0.00,CLR,,0.00,WeatherDisplay:10.37,2013-07-28 10:02:00,
2013-07-28 05:07:00,51.3,50.2,28.94,NW,315,8.1,8.1,96,0.00,CLR,,0.00,WeatherDisplay:10.37,2013-07-28 10:07:00,
2013-07-28 05:12:00,51.3,50.2,28.94,North,0,10.4,10.4,96,0.00,CLR,,0.00,WeatherDisplay:10.37,2013-07-28 10:12:00,
2013-07-28 05:17:00,51.3,50.2,28.94,North,0,11.5,11.5,96,0.00,CLR,,0.00,WeatherDisplay:10.37,2013-07-28 10:17:00,
2013-07-28 05:22:00,51.3,50.2,28.94,North,0,11.5,11.5,96,0.00,CLR,,0.00,WeatherDisplay:10.37,2013-07-28 10:22:00,
2013-07-28 05:27:00,51.4,50.3,28.94,North,0,9.2,9.2,96,0.00,CLR,,0.00,WeatherDisplay:10.37,2013-07-28 10:27:00,
2013-07-28 05:32:00,51.4,50.3,28.94,North,0,5.8,5.8,96,0.00,CLR,,0.00,WeatherDisplay:10.37,2013-07-28 10:32:00,
2013-07-28 05:37:00,51.6,50.5,28.94,SW,225,4.6,4.6,96,0.00,CLR,,0.00,WeatherDisplay:10.37,2013-07-28 10:37:00,
2013-07-28 05:42:00,51.6,50.5,28.94,North,0,5.8,5.8,96,0.00,CLR,,0.00,WeatherDisplay:10.37,2013-07-28 10:42:00,
2013-07-28 05:47:00,51.6,50.2,28.95,NNW,338,6.9,6.9,95,0.00,CLR,,0.00,WeatherDisplay:10.37,2013-07-28 10:47:00,
2013-07-28 05:52:00,51.8,50.7,28.95,North,0,8.1,8.1,96,0.00,CLR,,0.00,WeatherDisplay:10.37,2013-07-28 10:52:00,
2013-07-28 05:57:00,52.2,50.8,28.95,North,0,8.1,8.1,95,0.00,CLR,,0.00,WeatherDisplay:10.37,2013-07-28 10:57:00,
2013-07-28 06:02:00,52.2,50.8,28.95,NE,45,8.1,8.1,95,0.00,CLR,,0.00,WeatherDisplay:10.37,2013-07-28 11:02:00,
2013-07-28 06:07:00,52.3,50.7,28.95,NW,315,8.1,8.1,94,0.00,CLR,,0.00,WeatherDisplay:10.37,2013-07-28 11:07:00,
2013-07-28 06:12:00,52.3,50.7,28.95,North,0,10.4,10.4,94,0.00,CLR,,0.00,WeatherDisplay:10.37,2013-07-28 11:12:00,
2013-07-28 06:17:00,52.3,50.4,28.95,North,0,8.1,8.1,93,0.00,CLR,,0.00,WeatherDisplay:10.37,2013-07-28 11:17:00,
2013-07-28 06:22:00,52.5,50.8,28.95,North,0,10.4,10.4,94,0.00,CLR,,0.00,WeatherDisplay:10.37,2013-07-28 11:22:00,
2013-07-28 06:27:00,52.5,51.1,28.95,NW,315,5.8,5.8,95,0.00,CLR,,0.00,WeatherDisplay:10.37,2013-07-28 11:27:00,
2013-07-28 06:32:00,52.5,51.4,28.96,NW,315,8.1,8.1,96,0.00,CLR,,0.00,WeatherDisplay:10.37,2013-07-28 11:32:00,
2013-07-28 06:37:00,52.5,51.7,28.96,NW,315,6.9,6.9,97,0.00,CLR,,0.00,WeatherDisplay:10.37,2013-07-28 11:37:00,
2013-07-28 06:42:00,52.3,51.5,28.96,NW,315,12.7,12.7,97,0.00,CLR,,0.00,WeatherDisplay:10.37,2013-07-28 11:42:00,
2013-07-28 06:47:00,52.3,51.5,28.96,North,0,10.4,10.4,97,0.00,CLR,,0.00,WeatherDisplay:10.37,2013-07-28 11:47:00,
2013-07-28 06:52:00,52.2,51.3,28.96,NW,315,5.8,5.8,97,0.00,CLR,,0.00,WeatherDisplay:10.37,2013-07-28 11:52:00,
2013-07-28 06:57:00,52.5,51.7,28.96,North,0,8.1,8.1,97,0.00,CLR,,0.00,WeatherDisplay:10.37,2013-07-28 11:57:00,
2013-07-28 07:02:00,52.5,51.4,28.96,NE,45,8.1,8.1,96,0.00,CLR,,0.00,WeatherDisplay:10.37,2013-07-28 12:02:00,
2013-07-28 07:07:00,52.7,51.6,28.96,North,0,9.2,9.2,96,0.00,CLR,,0.00,WeatherDisplay:10.37,2013-07-28 12:07:00,
2013-07-28 07:12:00,52.7,51.6,28.96,NW,315,5.8,5.8,96,0.00,CLR,,0.00,WeatherDisplay:10.37,2013-07-28 12:12:00,
2013-07-28 07:17:00,52.7,51.3,28.97,NE,45,8.1,8.1,95,0.00,CLR,,0.00,WeatherDisplay:10.37,2013-07-28 12:17:00,
2013-07-28 07:22:00,52.9,51.2,28.97,NW,315,10.4,10.4,94,0.00,CLR,,0.00,WeatherDisplay:10.37,2013-07-28 12:22:00,
2013-07-28 07:27:00,52.9,51.2,28.97,NW,315,5.8,5.8,94,0.00,CLR,,0.00,WeatherDisplay:10.37,2013-07-28 12:27:00,
2013-07-28 07:32:00,52.9,51.2,28.97,NW,315,9.2,9.2,94,0.00,CLR,,0.00,WeatherDisplay:10.37,2013-07-28 12:32:00,
2013-07-28 07:37:00,52.9,50.9,28.96,NW,315,9.2,9.2,93,0.00,CLR,,0.00,WeatherDisplay:10.37,2013-07-28 12:37:00,
2013-07-28 07:42:00,52.9,50.9,28.97,NNW,338,11.5,11.5,93,0.00,CLR,,0.00,WeatherDisplay:10.37,2013-07-28 12:42:00,
2013-07-28 07:47:00,52.9,50.9,28.97,NW,315,9.2,9.2,93,0.00,CLR,,0.00,WeatherDisplay:10.37,2013-07-28 12:47:00,
2013-07-28 07:52:00,53.1,50.8,28.97,North,0,12.7,12.7,92,0.00,CLR,,0.00,WeatherDisplay:10.37,2013-07-28 12:52:00,
2013-07-28 07:57:00,53.2,51.0,28.97,North,0,5.8,5.8,92,0.00,CLR,,0.00,WeatherDisplay:10.37,2013-07-28 12:57:00,
2013-07-28 08:02:00,53.2,50.7,28.97,NW,315,9.2,9.2,91,0.00,CLR,,0.00,WeatherDisplay:10.37,2013-07-28 13:02:00,
2013-07-28 08:07:00,53.4,50.9,28.97,NE,45,8.1,8.1,91,0.00,CLR,,0.00,WeatherDisplay:10.37,2013-07-28 13:07:00,
2013-07-28 08:12:00,53.6,50.7,28.97,NW,315,10.4,10.4,90,0.00,CLR,,0.00,WeatherDisplay:10.37,2013-07-28 13:12:00,
2013-07-28 08:17:00,53.6,50.7,28.97,North,0,8.1,8.1,90,0.00,CLR,,0.00,WeatherDisplay:10.37,2013-07-28 13:17:00,
2013-07-28 08:22:00,53.8,50.6,28.97,North,0,8.1,8.1,89,0.00,CLR,,0.00,WeatherDisplay:10.37,2013-07-28 13:22:00,
2013-07-28 08:27:00,54.0,50.8,28.97,NNW,338,5.8,10.7,89,0.00,CLR,,0.00,WeatherDisplay:10.37,2013-07-28 13:27:00,
2013-07-28 08:32:00,54.0,50.5,28.97,NW,315,11.5,11.5,88,0.00,CLR,,0.00,WeatherDisplay:10.37,2013-07-28 13:32:00,
2013-07-28 08:37:00,54.1,50.4,28.97,North,0,10.4,10.4,87,0.00,CLR,,0.00,WeatherDisplay:10.37,2013-07-28 13:37:00,
2013-07-28 08:42:00,54.5,50.7,28.97,North,0,11.5,11.5,87,0.00,CLR,,0.00,WeatherDisplay:10.37,2013-07-28 13:42:00,
2013-07-28 08:47:00,54.5,50.7,28.98,West,270,11.5,11.5,87,0.00,CLR,,0.00,WeatherDisplay:10.37,2013-07-28 13:47:00,
2013-07-28 08:52:00,54.5,50.7,28.98,North,0,10.4,10.4,87,0.00,CLR,,0.00,WeatherDisplay:10.37,2013-07-28 13:52:00,
2013-07-28 08:57:00,54.5,50.7,28.98,North,0,10.4,10.4,87,0.00,CLR,,0.00,WeatherDisplay:10.37,2013-07-28 13:57:00,
2013-07-28 09:02:00,54.7,50.9,28.98,WNW,292,6.9,6.9,87,0.00,CLR,,0.00,WeatherDisplay:10.37,2013-07-28 14:02:00,
2013-07-28 09:07:00,55.0,51.2,28.98,NE,45,5.8,5.8,87,0.00,CLR,,0.00,WeatherDisplay:10.37,2013-07-28 14:07:00,
2013-07-28 09:12:00,55.2,50.5,28.98,North,0,10.4,10.4,84,0.00,CLR,,0.00,WeatherDisplay:10.37,2013-07-28 14:12:00,
2013-07-28 09:17:00,55.0,50.3,28.98,NNW,338,8.1,8.1,84,0.00,CLR,,0.00,WeatherDisplay:10.37,2013-07-28 14:17:00,
2013-07-28 09:22:00,55.2,50.8,28.97,North,0,6.9,7.6,85,0.00,CLR,,0.00,WeatherDisplay:10.37,2013-07-28 14:22:00,
2013-07-28 09:27:00,55.6,51.1,28.97,North,0,8.1,8.1,85,0.00,CLR,,0.00,WeatherDisplay:10.37,2013-07-28 14:27:00,
2013-07-28 09:33:00,55.8,50.7,28.98,North,0,10.4,10.4,83,0.00,CLR,,0.00,WeatherDisplay:10.37,2013-07-28 14:33:00,
2013-07-28 09:38:00,55.9,50.5,28.97,North,0,10.4,10.4,82,0.00,CLR,,0.00,WeatherDisplay:10.37,2013-07-28 14:38:00,
2013-07-28 09:43:00,56.1,50.7,28.97,NW,315,8.1,8.1,82,0.00,CLR,,0.00,WeatherDisplay:10.37,2013-07-28 14:43:00,
2013-07-28 09:48:00,56.7,51.2,28.97,NW,315,7.6,7.6,82,0.00,CLR,,0.00,WeatherDisplay:10.37,2013-07-28 14:48:00,
2013-07-28 09:53:00,56.7,51.2,28.97,North,0,10.4,10.4,82,0.00,CLR,,0.00,WeatherDisplay:10.37,2013-07-28 14:53:00,
2013-07-28 09:58:00,57.2,51.4,28.97,North,0,6.0,6.0,81,0.00,CLR,,0.00,WeatherDisplay:10.37,2013-07-28 14:58:00,
2013-07-28 10:03:00,57.9,51.8,28.97,NW,315,8.1,8.1,80,0.00,CLR,,0.00,WeatherDisplay:10.37,2013-07-28 15:03:00,
2013-07-28 10:08:00,58.1,51.3,28.98,North,0,8.1,8.1,78,0.00,CLR,,0.00,WeatherDisplay:10.37,2013-07-28 15:08:00,
2013-07-28 10:13:00,57.4,50.6,28.97,WNW,292,11.5,11.5,78,0.00,CLR,,0.00,WeatherDisplay:10.37,2013-07-28 15:13:00,
2013-07-28 10:18:00,57.6,50.8,28.98,NW,315,12.7,12.7,78,0.00,CLR,,0.00,WeatherDisplay:10.37,2013-07-28 15:18:00,
2013-07-28 10:23:00,57.7,50.9,28.98,North,0,11.5,11.5,78,0.00,CLR,,0.00,WeatherDisplay:10.37,2013-07-28 15:23:00,
2013-07-28 10:28:00,58.6,51.4,28.98,North,0,8.1,8.1,77,0.00,CLR,,0.00,WeatherDisplay:10.37,2013-07-28 15:28:00,
2013-07-28 10:33:00,59.0,51.4,28.98,North,0,8.1,8.1,76,0.00,CLR,,0.00,WeatherDisplay:10.37,2013-07-28 15:33:00,
2013-07-28 10:38:00,59.5,51.2,28.98,NE,45,12.7,12.7,74,0.00,CLR,,0.00,WeatherDisplay:10.37,2013-07-28 15:38:00,
2013-07-28 10:43:00,59.2,51.3,28.98,NW,315,5.8,5.8,75,0.00,CLR,,0.00,WeatherDisplay:10.37,2013-07-28 15:43:00,
2013-07-28 10:48:00,59.5,51.6,28.98,North,0,8.1,8.1,75,0.00,CLR,,0.00,WeatherDisplay:10.37,2013-07-28 15:48:00,
2013-07-28 10:53:00,59.0,50.7,28.98,North,0,9.2,9.2,74,0.00,CLR,,0.00,WeatherDisplay:10.37,2013-07-28 15:53:00,
2013-07-28 10:58:00,59.0,51.1,28.98,NW,315,8.1,8.1,75,0.00,CLR,,0.00,WeatherDisplay:10.37,2013-07-28 15:58:00,
2013-07-28 11:03:00,59.5,51.2,28.98,NW,315,10.4,10.4,74,0.00,CLR,,0.00,WeatherDisplay:10.37,2013-07-28 16:03:00,
2013-07-28 11:08:00,59.5,51.2,28.98,North,0,8.1,8.1,74,0.00,CLR,,0.00,WeatherDisplay:10.37,2013-07-28 16:08:00,
2013-07-28 11:13:00,59.7,51.0,28.98,North,0,9.2,9.2,73,0.00,CLR,,0.00,WeatherDisplay:10.37,2013-07-28 16:13:00,
2013-07-28 11:18:00,59.7,51.0,28.98,WNW,292,8.1,8.1,73,0.00,CLR,,0.00,WeatherDisplay:10.37,2013-07-28 16:18:00,
2013-07-28 11:23:00,59.7,51.4,28.98,NW,315,8.1,8.1,74,0.00,CLR,,0.00,WeatherDisplay:10.37,2013-07-28 16:23:00,
2013-07-28 11:28:00,59.2,51.3,28.99,NW,315,8.1,8.1,75,0.02,RA,,0.02,WeatherDisplay:10.37,2013-07-28 16:28:00,
2013-07-28 11:33:00,59.4,51.8,28.99,NW,315,8.1,8.1,76,0.02,RA,,0.02,WeatherDisplay:10.37,2013-07-28 16:33:00,
2013-07-28 11:38:00,59.7,51.4,28.99,NW,315,10.4,10.4,74,0.02,CLR,,0.02,WeatherDisplay:10.37,2013-07-28 16:38:00,
2013-07-28 11:43:00,59.5,50.9,29.00,North,0,9.2,9.2,73,0.02,CLR,,0.02,WeatherDisplay:10.37,2013-07-28 16:43:00,
2013-07-28 11:48:00,59.4,51.1,29.00,North,0,15.0,15.0,74,0.02,CLR,,0.02,WeatherDisplay:10.37,2013-07-28 16:48:00,
2013-07-28 11:53:00,59.2,51.3,29.00,NE,45,10.4,10.4,75,0.02,CLR,,0.02,WeatherDisplay:10.37,2013-07-28 16:53:00,
2013-07-28 11:58:00,59.9,51.6,29.00,North,0,8.1,8.1,74,0.02,CLR,,0.02,WeatherDisplay:10.37,2013-07-28 16:58:00,
2013-07-28 12:03:00,60.4,51.0,29.00,North,0,11.5,11.5,71,0.02,CLR,,0.02,WeatherDisplay:10.37,2013-07-28 17:03:00,
2013-07-28 12:08:00,60.1,50.6,29.00,NW,315,12.7,12.7,71,0.02,CLR,,0.02,WeatherDisplay:10.37,2013-07-28 17:08:00,
2013-07-28 12:13:00,60.1,51.0,29.00,NW,315,11.5,11.5,72,0.02,CLR,,0.02,WeatherDisplay:10.37,2013-07-28 17:13:00,
2013-07-28 12:18:00,60.4,51.7,29.00,North,0,9.2,9.2,73,0.02,CLR,,0.02,WeatherDisplay:10.37,2013-07-28 17:18:00,
2013-07-28 12:23:00,61.0,51.5,29.00,NW,315,8.1,8.1,71,0.02,CLR,,0.02,WeatherDisplay:10.37,2013-07-28 17:23:00,
2013-07-28 12:28:00,60.8,51.3,29.00,North,0,12.7,12.7,71,0.00,CLR,,0.02,WeatherDisplay:10.37,2013-07-28 17:28:00,
2013-07-28 12:33:00,61.0,51.5,29.00,NW,315,10.4,10.4,71,0.00,CLR,,0.02,WeatherDisplay:10.37,2013-07-28 17:33:00,
2013-07-28 12:38:00,61.0,51.5,29.00,West,270,9.2,9.2,71,0.00,CLR,,0.02,WeatherDisplay:10.37,2013-07-28 17:38:00,
2013-07-28 12:43:00,61.2,51.3,29.00,NNW,338,12.7,12.7,70,0.00,CLR,,0.02,WeatherDisplay:10.37,2013-07-28 17:43:00,
2013-07-28 12:48:00,61.5,51.3,29.00,NW,315,12.7,12.7,69,0.00,CLR,,0.02,WeatherDisplay:10.37,2013-07-28 17:48:00,
2013-07-28 12:53:00,61.9,52.0,29.00,North,0,8.1,8.1,70,0.00,CLR,,0.02,WeatherDisplay:10.37,2013-07-28 17:53:00,
2013-07-28 12:58:00,61.2,51.3,29.01,North,0,13.8,13.8,70,0.00,CLR,,0.02,WeatherDisplay:10.37,2013-07-28 17:58:00,
2013-07-28 13:03:00,61.9,52.4,29.00,North,0,10.4,10.4,71,0.00,CLR,,0.02,WeatherDisplay:10.37,2013-07-28 18:03:00,
2013-07-28 13:08:00,63.1,52.0,29.00,NNW,338,11.5,11.5,67,0.00,CLR,,0.02,WeatherDisplay:10.37,2013-07-28 18:08:00,
2013-07-28 13:13:00,62.4,51.3,29.00,NW,315,10.4,10.4,67,0.00,CLR,,0.02,WeatherDisplay:10.37,2013-07-28 18:13:00,
2013-07-28 13:18:00,62.2,51.5,29.00,North,0,11.5,11.5,68,0.00,CLR,,0.02,WeatherDisplay:10.37,2013-07-28 18:18:00,
2013-07-28 13:23:00,62.6,52.3,29.00,North,0,5.8,5.8,69,0.00,CLR,,0.02,WeatherDisplay:10.37,2013-07-28 18:23:00,
2013-07-28 13:28:00,63.0,52.2,29.01,NE,45,8.1,8.1,68,0.00,CLR,,0.02,WeatherDisplay:10.37,2013-07-28 18:28:00,
2013-07-28 13:33:00,63.3,52.2,29.01,NW,315,10.4,10.4,67,0.00,CLR,,0.02,WeatherDisplay:10.37,2013-07-28 18:33:00,
2013-07-28 13:38:00,63.0,52.2,29.00,North,0,6.9,6.9,68,0.00,CLR,,0.02,WeatherDisplay:10.37,2013-07-28 18:38:00,
2013-07-28 13:43:00,62.8,52.1,29.01,North,0,8.1,8.1,68,0.00,CLR,,0.02,WeatherDisplay:10.37,2013-07-28 18:43:00,
2013-07-28 13:48:00,62.8,51.7,29.01,SW,225,11.5,11.5,67,0.00,CLR,,0.02,WeatherDisplay:10.37,2013-07-28 18:48:00,
2013-07-28 13:53:00,63.0,51.8,29.01,North,0,12.7,12.7,67,0.00,CLR,,0.02,WeatherDisplay:10.37,2013-07-28 18:53:00,
2013-07-28 13:58:00,62.4,51.3,29.01,NE,45,15.0,15.0,67,0.00,CLR,,0.02,WeatherDisplay:10.37,2013-07-28 18:58:00,
2013-07-28 14:03:00,62.6,51.9,29.01,NW,315,9.2,9.2,68,0.00,CLR,,0.02,WeatherDisplay:10.37,2013-07-28 19:03:00,
2013-07-28 14:08:00,62.4,51.7,29.01,North,0,11.5,11.5,68,0.00,CLR,,0.02,WeatherDisplay:10.37,2013-07-28 19:08:00,
2013-07-28 14:13:00,62.2,51.9,29.01,NW,315,10.4,10.4,69,0.00,CLR,,0.02,WeatherDisplay:10.37,2013-07-28 19:13:00,
2013-07-28 14:18:00,63.0,53.0,29.01,NW,315,5.8,5.8,70,0.00,CLR,,0.02,WeatherDisplay:10.37,2013-07-28 19:18:00,
2013-07-28 14:23:00,64.0,52.9,29.01,North,0,8.1,8.1,67,0.00,CLR,,0.02,WeatherDisplay:10.37,2013-07-28 19:23:00,
2013-07-28 14:28:00,63.5,52.3,29.01,North,0,11.5,11.5,67,0.00,CLR,,0.02,WeatherDisplay:10.37,2013-07-28 19:28:00,
2013-07-28 14:33:00,64.0,52.9,29.01,North,0,4.6,4.6,67,0.00,CLR,,0.02,WeatherDisplay:10.37,2013-07-28 19:33:00,
2013-07-28 14:38:00,67.5,54.9,29.01,North,0,8.1,8.1,64,0.00,CLR,,0.02,WeatherDisplay:10.37,2013-07-28 19:38:00,
2013-07-28 14:43:00,65.7,52.3,29.01,North,0,10.4,10.4,62,0.00,CLR,,0.02,WeatherDisplay:10.37,2013-07-28 19:43:00,
2013-07-28 14:48:00,67.1,54.5,29.01,North,0,6.9,6.9,64,0.00,CLR,,0.02,WeatherDisplay:10.37,2013-07-28 19:48:00,
2013-07-28 14:53:00,67.5,53.5,29.00,North,0,11.5,11.5,61,0.00,CLR,,0.02,WeatherDisplay:10.37,2013-07-28 19:53:00,
2013-07-28 14:58:00,69.1,54.1,29.00,NW,315,10.4,10.4,59,0.00,CLR,,0.02,WeatherDisplay:10.37,2013-07-28 19:58:00,
2013-07-28 15:03:00,67.8,53.0,29.00,West,270,10.4,10.4,59,0.00,CLR,,0.02,WeatherDisplay:10.37,2013-07-28 20:03:00,
2013-07-28 15:08:00,67.5,53.1,29.00,NE,45,8.1,8.1,60,0.00,CLR,,0.02,WeatherDisplay:10.37,2013-07-28 20:08:00,
2013-07-28 15:13:00,67.8,53.9,29.00,North,0,9.2,9.2,61,0.00,CLR,,0.02,WeatherDisplay:10.37,2013-07-28 20:13:00,
2013-07-28 15:18:00,68.2,53.3,29.00,North,0,8.1,8.1,59,0.00,CLR,,0.02,WeatherDisplay:10.37,2013-07-28 20:18:00,
2013-07-28 15:23:00,68.2,53.8,29.00,NW,315,10.4,10.4,60,0.00,CLR,,0.02,WeatherDisplay:10.37,2013-07-28 20:23:00,
2013-07-28 15:28:00,68.5,53.6,28.99,North,0,8.1,8.1,59,0.00,CLR,,0.02,WeatherDisplay:10.37,2013-07-28 20:28:00,
2013-07-28 15:33:00,69.4,54.0,28.99,NE,45,5.8,5.8,58,0.00,CLR,,0.02,WeatherDisplay:10.37,2013-07-28 20:33:00,
2013-07-28 15:38:00,69.4,53.5,29.00,North,0,12.7,12.7,57,0.00,CLR,,0.02,WeatherDisplay:10.37,2013-07-28 20:38:00,
2013-07-28 15:43:00,69.1,52.2,29.00,North,0,12.7,12.7,55,0.00,CLR,,0.02,WeatherDisplay:10.37,2013-07-28 20:43:00,
2013-07-28 15:48:00,69.1,53.2,29.00,WNW,292,8.1,8.1,57,0.00,CLR,,0.02,WeatherDisplay:10.37,2013-07-28 20:48:00,
2013-07-28 15:53:00,69.8,52.9,29.00,North,0,15.0,15.0,55,0.00,CLR,,0.02,WeatherDisplay:10.37,2013-07-28 20:53:00,
2013-07-28 15:58:00,70.0,53.1,29.00,North,0,11.5,11.5,55,0.00,CLR,,0.02,WeatherDisplay:10.37,2013-07-28 20:58:00,
2013-07-28 16:03:00,69.6,53.7,29.00,NW,315,10.4,10.4,57,0.00,CLR,,0.02,WeatherDisplay:10.37,2013-07-28 21:03:00,
2013-07-28 16:08:00,68.9,52.6,29.00,NW,315,12.7,12.7,56,0.00,CLR,,0.02,WeatherDisplay:10.37,2013-07-28 21:08:00,
2013-07-28 16:13:00,68.0,53.1,29.00,North,0,11.5,11.5,59,0.00,CLR,,0.02,WeatherDisplay:10.37,2013-07-28 21:13:00,
2013-07-28 16:18:00,68.9,54.0,29.00,North,0,6.9,6.9,59,0.00,CLR,,0.02,WeatherDisplay:10.37,2013-07-28 21:18:00,
2013-07-28 16:23:00,71.1,54.6,28.99,North,0,10.4,10.4,56,0.00,CLR,,0.02,WeatherDisplay:10.37,2013-07-28 21:23:00,
2013-07-28 16:28:00,71.6,54.1,29.00,NW,315,10.4,10.4,54,0.00,CLR,,0.02,WeatherDisplay:10.37,2013-07-28 21:28:00,
2013-07-28 16:33:00,70.9,53.4,29.00,NW,315,10.4,10.4,54,0.00,CLR,,0.02,WeatherDisplay:10.37,2013-07-28 21:33:00,
2013-07-28 16:38:00,70.5,54.1,29.00,North,0,8.1,8.1,56,0.00,CLR,,0.02,WeatherDisplay:10.37,2013-07-28 21:38:00,
2013-07-28 16:43:00,69.3,52.4,29.00,North,0,16.1,16.1,55,0.00,CLR,,0.02,WeatherDisplay:10.37,2013-07-28 21:43:00,
2013-07-28 16:48:00,67.8,53.0,29.00,NNW,338,10.4,10.4,59,0.00,CLR,,0.02,WeatherDisplay:10.37,2013-07-28 21:48:00,
2013-07-28 16:53:00,67.5,53.5,29.00,North,0,5.8,5.8,61,0.00,CLR,,0.02,WeatherDisplay:10.37,2013-07-28 21:53:00,
2013-07-28 16:58:00,68.0,54.5,29.01,North,0,5.8,5.8,62,0.00,CLR,,0.02,WeatherDisplay:10.37,2013-07-28 21:58:00,
2013-07-28 17:03:00,68.0,53.6,29.00,NW,315,9.2,9.2,60,0.00,CLR,,0.02,WeatherDisplay:10.37,2013-07-28 22:03:00,
2013-07-28 17:08:00,67.6,53.7,29.00,NW,315,9.2,9.2,61,0.00,CLR,,0.02,WeatherDisplay:10.37,2013-07-28 22:08:00,
2013-07-28 17:13:00,68.2,54.2,29.00,North,0,5.8,5.8,61,0.00,CLR,,0.02,WeatherDisplay:10.37,2013-07-28 22:13:00,
2013-07-28 17:18:00,68.2,53.8,29.01,North,0,7.6,7.6,60,0.00,CLR,,0.02,WeatherDisplay:10.37,2013-07-28 22:18:00,
2013-07-28 17:23:00,68.0,54.0,29.00,North,0,8.1,8.1,61,0.00,CLR,,0.02,WeatherDisplay:10.37,2013-07-28 22:23:00,
2013-07-28 17:28:00,68.0,54.5,29.01,NW,315,6.9,6.9,62,0.00,CLR,,0.02,WeatherDisplay:10.37,2013-07-28 22:28:00,
2013-07-28 17:33:00,68.5,54.6,29.01,NW,315,11.5,11.5,61,0.00,CLR,,0.02,WeatherDisplay:10.37,2013-07-28 22:33:00,
2013-07-28 17:38:00,70.0,54.5,29.01,North,0,5.8,5.8,58,0.00,CLR,,0.02,WeatherDisplay:10.37,2013-07-28 22:38:00,
2013-07-28 17:43:00,69.4,54.5,29.01,WNW,292,10.4,10.4,59,0.00,CLR,,0.02,WeatherDisplay:10.37,2013-07-28 22:43:00,
2013-07-28 17:48:00,68.5,54.1,29.01,North,0,10.4,10.4,60,0.00,CLR,,0.02,WeatherDisplay:10.37,2013-07-28 22:48:00,
2013-07-28 17:53:00,68.2,54.2,29.01,North,0,15.0,15.0,61,0.00,CLR,,0.02,WeatherDisplay:10.37,2013-07-28 22:53:00,
2013-07-28 17:58:00,69.4,54.9,29.01,North,0,12.7,12.7,60,0.00,CLR,,0.02,WeatherDisplay:10.37,2013-07-28 22:58:00,
2013-07-28 18:03:00,71.1,54.6,29.01,North,0,8.1,8.1,56,0.00,CLR,,0.02,WeatherDisplay:10.37,2013-07-28 23:03:00,
2013-07-28 18:08:00,71.2,54.2,29.01,North,0,15.0,15.0,55,0.00,CLR,,0.02,WeatherDisplay:10.37,2013-07-28 23:08:00,
2013-07-28 18:13:00,71.4,53.9,29.01,North,0,10.4,10.4,54,0.00,CLR,,0.02,WeatherDisplay:10.37,2013-07-28 23:13:00,
2013-07-28 18:18:00,71.8,54.2,29.01,NE,45,10.4,10.4,54,0.00,CLR,,0.02,WeatherDisplay:10.37,2013-07-28 23:18:00,
2013-07-28 18:23:00,72.0,53.4,29.01,SW,225,6.9,6.9,52,0.00,CLR,,0.02,WeatherDisplay:10.37,2013-07-28 23:23:00,
2013-07-28 18:28:00,72.0,53.9,29.01,NW,315,5.8,5.8,53,0.00,CLR,,0.02,WeatherDisplay:10.37,2013-07-28 23:28:00,
2013-07-28 18:33:00,72.1,54.1,29.01,NW,315,9.2,9.2,53,0.00,CLR,,0.02,WeatherDisplay:10.37,2013-07-28 23:33:00,
2013-07-28 18:38:00,72.0,53.4,29.01,NE,45,8.3,8.3,52,0.00,CLR,,0.02,WeatherDisplay:10.37,2013-07-28 23:38:00,
2013-07-28 18:43:00,72.0,53.4,29.02,NW,315,8.1,8.1,52,0.00,CLR,,0.02,WeatherDisplay:10.37,2013-07-28 23:43:00,
2013-07-28 18:48:00,71.4,53.4,29.02,North,0,8.1,8.1,53,0.00,CLR,,0.02,WeatherDisplay:10.37,2013-07-28 23:48:00,
2013-07-28 18:53:00,72.3,53.7,29.02,North,0,8.1,8.1,52,0.00,CLR,,0.02,WeatherDisplay:10.37,2013-07-28 23:53:00,
2013-07-28 18:58:00,71.1,53.6,29.02,North,0,8.1,8.1,54,0.00,CLR,,0.02,WeatherDisplay:10.37,2013-07-28 23:58:00,
2013-07-28 19:03:00,70.9,53.9,29.02,North,0,8.1,8.1,55,0.00,CLR,,0.02,WeatherDisplay:10.37,2013-07-29 00:03:00,
2013-07-28 19:08:00,70.5,54.1,29.03,NE,45,5.8,5.8,56,0.00,CLR,,0.02,WeatherDisplay:10.37,2013-07-29 00:08:00,
2013-07-28 19:13:00,71.2,54.2,29.02,North,0,6.9,6.9,55,0.00,CLR,,0.02,WeatherDisplay:10.37,2013-07-29 00:13:00,
2013-07-28 19:18:00,71.2,53.7,29.03,NE,45,10.4,10.4,54,0.00,CLR,,0.02,WeatherDisplay:10.37,2013-07-29 00:18:00,
2013-07-28 19:23:00,71.4,54.4,29.03,West,270,6.9,6.9,55,0.00,CLR,,0.02,WeatherDisplay:10.37,2013-07-29 00:23:00,
2013-07-28 19:28:00,71.1,53.6,29.03,North,0,5.8,5.8,54,0.00,CLR,,0.02,WeatherDisplay:10.37,2013-07-29 00:28:00,
2013-07-28 19:33:00,69.1,52.7,29.03,NW,315,9.2,9.2,56,0.00,CLR,,0.02,WeatherDisplay:10.37,2013-07-29 00:33:00,
2013-07-28 19:38:00,67.8,53.4,29.03,North,0,5.8,5.8,60,0.00,CLR,,0.02,WeatherDisplay:10.37,2013-07-29 00:38:00,
2013-07-28 19:43:00,69.3,54.8,29.03,North,0,4.6,4.6,60,0.00,CLR,,0.02,WeatherDisplay:10.37,2013-07-29 00:43:00,
2013-07-28 19:48:00,69.1,53.7,29.03,North,0,3.5,3.5,58,0.00,CLR,,0.02,WeatherDisplay:10.37,2013-07-29 00:48:00,
2013-07-28 19:53:00,69.4,54.0,29.04,South,180,5.8,5.8,58,0.00,CLR,,0.02,WeatherDisplay:10.37,2013-07-29 00:53:00,
2013-07-28 19:58:00,68.0,53.6,29.04,NW,315,4.6,4.6,60,0.00,CLR,,0.02,WeatherDisplay:10.37,2013-07-29 00:58:00,
2013-07-28 20:03:00,67.3,53.8,29.04,North,0,4.6,4.6,62,0.00,CLR,,0.02,WeatherDisplay:10.37,2013-07-29 01:03:00,
2013-07-28 20:08:00,66.6,53.6,29.03,NE,45,5.8,5.8,63,0.00,CLR,,0.02,WeatherDisplay:10.37,2013-07-29 01:08:00,
2013-07-28 20:13:00,65.8,53.7,29.04,North,0,4.6,4.6,65,0.00,CLR,,0.02,WeatherDisplay:10.37,2013-07-29 01:13:00,
2013-07-28 20:18:00,65.7,54.0,29.04,NW,315,2.3,2.3,66,0.00,CLR,,0.02,WeatherDisplay:10.37,2013-07-29 01:18:00,
2013-07-28 20:24:00,65.3,54.1,29.04,North,0,2.3,2.3,67,0.00,CLR,,0.02,WeatherDisplay:10.37,2013-07-29 01:24:00,
2013-07-28 20:30:00,64.7,53.4,29.04,North,354,1.0,2.0,67,0.00,CLR,,0.02,WeatherDisplay:10.37,2013-07-29 01:30:00,
2013-07-28 20:35:00,66.6,55.7,29.04,North,0,2.3,2.3,68,0.00,CLR,,0.02,WeatherDisplay:10.37,2013-07-29 01:35:00,
2013-07-28 20:40:00,66.5,55.6,29.04,North,351,0.0,4.0,68,0.00,CLR,,0.02,WeatherDisplay:10.37,2013-07-29 01:40:00,
2013-07-28 20:45:00,66.2,55.3,29.04,North,351,1.0,5.0,68,0.00,CLR,,0.02,WeatherDisplay:10.37,2013-07-29 01:45:00,
2013-07-28 20:50:00,66.0,55.6,29.05,NNW,339,0.0,3.0,69,0.00,CLR,,0.02,WeatherDisplay:10.37,2013-07-29 01:50:00,
2013-07-28 20:55:00,65.8,55.4,29.05,NNW,331,1.0,3.0,69,0.00,CLR,,0.02,WeatherDisplay:10.37,2013-07-29 01:55:00,
2013-07-28 21:00:00,65.7,55.6,29.05,NNW,343,0.0,2.0,70,0.00,CLR,,0.02,WeatherDisplay:10.37,2013-07-29 02:00:00,
2013-07-28 21:05:00,65.5,55.4,29.05,NNW,342,1.0,3.0,70,0.00,CLR,,0.02,WeatherDisplay:10.37,2013-07-29 02:05:00,
2013-07-28 21:10:00,65.3,55.7,29.06,NNW,331,1.0,3.0,71,0.00,CLR,,0.02,WeatherDisplay:10.37,2013-07-29 02:10:00,
2013-07-28 21:15:00,65.3,56.0,29.06,NNW,329,0.0,3.0,72,0.00,CLR,,0.02,WeatherDisplay:10.37,2013-07-29 02:15:00,
2013-07-28 21:20:00,65.3,56.0,29.06,NW,315,2.3,0.0,72,0.00,CLR,,0.02,WeatherDisplay:10.37,2013-07-29 02:20:00,
2013-07-28 21:25:00,63.0,54.2,29.06,NW,315,2.3,2.3,73,0.00,CLR,,0.02,WeatherDisplay:10.37,2013-07-29 02:25:00,
2013-07-28 21:30:00,62.8,54.0,29.07,North,0,1.1,1.1,73,0.00,CLR,,0.02,WeatherDisplay:10.37,2013-07-29 02:30:00,
2013-07-28 21:35:00,62.6,54.2,29.06,North,0,1.1,1.1,74,0.00,CLR,,0.02,WeatherDisplay:10.37,2013-07-29 02:35:00,
2013-07-28 21:40:00,62.2,53.8,29.07,North,0,1.1,1.1,74,0.00,CLR,,0.02,WeatherDisplay:10.37,2013-07-29 02:40:00,
2013-07-28 21:45:00,62.1,54.0,29.07,NW,315,1.1,0.0,75,0.00,CLR,,0.02,WeatherDisplay:10.37,2013-07-29 02:45:00,
2013-07-28 21:50:00,61.9,53.9,29.07,NW,315,1.1,0.0,75,0.00,CLR,,0.02,WeatherDisplay:10.37,2013-07-29 02:50:00,
2013-07-28 21:55:00,61.7,54.1,29.07,NW,315,1.1,0.0,76,0.00,CLR,,0.02,WeatherDisplay:10.37,2013-07-29 02:55:00,
2013-07-28 22:01:00,61.2,53.5,29.07,NW,315,1.1,0.0,76,0.00,CLR,,0.02,WeatherDisplay:10.37,2013-07-29 03:01:00,
2013-07-28 22:06:00,61.0,53.7,29.07,NW,315,1.1,0.0,77,0.00,CLR,,0.02,WeatherDisplay:10.37,2013-07-29 03:06:00,
2013-07-28 22:11:00,60.6,54.1,29.07,North,0,1.1,0.0,79,0.00,CLR,,0.02,WeatherDisplay:10.37,2013-07-29 03:11:00,
2013-07-28 22:16:00,60.4,54.2,29.07,NW,315,1.1,1.1,80,0.00,CLR,,0.02,WeatherDisplay:10.37,2013-07-29 03:16:00,
2013-07-28 22:21:00,60.6,54.8,29.06,North,0,3.5,3.5,81,0.00,CLR,,0.02,WeatherDisplay:10.37,2013-07-29 03:21:00,
2013-07-28 22:26:00,60.4,54.6,29.07,North,0,1.1,1.1,81,0.00,CLR,,0.02,WeatherDisplay:10.37,2013-07-29 03:26:00,
2013-07-28 22:33:00,60.1,54.6,29.07,NW,315,1.1,1.1,82,0.00,CLR,,0.02,WeatherDisplay:10.37,2013-07-29 03:33:00,
2013-07-28 22:38:00,59.9,54.7,29.07,NW,315,1.1,1.1,83,0.00,CLR,,0.02,WeatherDisplay:10.37,2013-07-29 03:38:00,
2013-07-28 22:43:00,59.9,55.1,29.07,North,0,1.1,1.1,84,0.00,CLR,,0.02,WeatherDisplay:10.37,2013-07-29 03:43:00,
2013-07-28 22:49:00,59.5,54.7,29.07,North,0,1.1,1.6,84,0.00,CLR,,0.02,WeatherDisplay:10.37,2013-07-29 03:49:00,
2013-07-28 22:54:00,59.2,55.0,29.07,North,0,1.1,1.1,86,0.00,CLR,,0.02,WeatherDisplay:10.37,2013-07-29 03:54:00,
2013-07-28 22:59:00,58.8,54.6,29.07,NW,315,1.1,0.0,86,0.00,CLR,,0.02,WeatherDisplay:10.37,2013-07-29 03:59:00,
2013-07-28 23:01:00,58.8,55.0,29.07,NW,315,1.1,0.0,87,0.00,CLR,,0.02,WeatherDisplay:10.37,2013-07-29 04:01:00,
2013-07-28 23:06:00,58.5,54.6,29.07,North,0,1.1,1.1,87,0.00,CLR,,0.02,WeatherDisplay:10.37,2013-07-29 04:06:00,
2013-07-28 23:11:00,58.1,54.6,29.07,WNW,292,2.3,2.3,88,0.00,CLR,,0.02,WeatherDisplay:10.37,2013-07-29 04:11:00,
2013-07-28 23:16:00,58.1,54.6,29.07,NNW,338,1.1,1.1,88,0.00,CLR,,0.02,WeatherDisplay:10.37,2013-07-29 04:16:00,
2013-07-28 23:21:00,57.9,54.7,29.07,NW,315,2.3,2.3,89,0.00,CLR,,0.02,WeatherDisplay:10.37,2013-07-29 04:21:00,
2013-07-28 23:26:00,57.7,54.5,29.07,North,0,2.3,2.3,89,0.00,CLR,,0.02,WeatherDisplay:10.37,2013-07-29 04:26:00,
2013-07-28 23:31:00,57.4,54.2,29.08,NW,315,2.2,2.2,89,0.00,CLR,,0.02,WeatherDisplay:10.37,2013-07-29 04:31:00,
2013-07-28 23:36:00,57.6,55.0,29.08,NW,315,3.5,3.5,91,0.00,CLR,,0.02,WeatherDisplay:10.37,2013-07-29 04:36:00,
2013-07-28 23:41:00,57.7,54.8,29.08,North,0,3.5,3.5,90,0.00,CLR,,0.02,WeatherDisplay:10.37,2013-07-29 04:41:00,
2013-07-28 23:47:00,57.7,55.1,29.08,NW,315,3.5,3.5,91,0.00,CLR,,0.02,WeatherDisplay:10.37,2013-07-29 04:47:00,
2013-07-28 23:52:00,57.7,55.1,29.08,North,0,3.5,3.5,91,0.00,CLR,,0.02,WeatherDisplay:10.37,2013-07-29 04:52:00,
2013-07-28 23:57:00,57.4,54.8,29.08,North,0,3.5,3.5,91,0.00,CLR,,0.02,WeatherDisplay:10.37,2013-07-29 04:57:00,